createdAt,value
2018-05-08T00:01:50.658Z,4.60
2018-05-08T00:04:16.544Z,4.37
2018-05-08T00:06:42.462Z,4.70
2018-05-08T00:09:08.403Z,4.37
2018-05-08T00:11:34.299Z,4.63
2018-05-08T00:14:00.248Z,4.77
2018-05-08T00:16:26.146Z,4.70
2018-05-08T00:18:52.019Z,4.40
2018-05-08T00:21:17.923Z,4.53
2018-05-08T00:23:43.809Z,4.30
2018-05-08T00:26:09.695Z,4.83
2018-05-08T00:28:35.633Z,4.30
2018-05-08T00:31:01.540Z,4.27
2018-05-08T00:33:27.466Z,4.33
2018-05-08T00:35:53.393Z,4.60
2018-05-08T00:38:19.268Z,4.87
2018-05-08T00:40:45.150Z,4.60
2018-05-08T00:43:11.123Z,4.63
2018-05-08T00:45:36.993Z,4.87
2018-05-08T00:48:02.951Z,5.17
2018-05-08T00:50:28.863Z,5.13
2018-05-08T00:52:54.738Z,5.23
2018-05-08T00:55:20.604Z,4.57
2018-05-08T00:57:46.551Z,5.00
2018-05-08T01:00:12.490Z,4.80
2018-05-08T01:02:38.371Z,4.77
2018-05-08T01:05:04.283Z,4.80
2018-05-08T01:07:30.153Z,4.80
2018-05-08T01:09:56.024Z,4.87
2018-05-08T01:12:21.993Z,4.60
2018-05-08T01:14:47.904Z,4.90
2018-05-08T01:17:13.765Z,4.90
2018-05-08T01:19:39.716Z,4.77
2018-05-08T01:22:05.605Z,5.17
2018-05-08T01:24:31.482Z,5.47
2018-05-08T01:26:57.400Z,5.20
2018-05-08T01:29:23.291Z,4.60
2018-05-08T01:31:49.171Z,5.23
2018-05-08T01:34:15.072Z,4.83
2018-05-08T01:36:40.947Z,4.87
2018-05-08T01:39:06.829Z,4.60
2018-05-08T01:41:32.781Z,4.97
2018-05-08T01:44:01.916Z,5.23
2018-05-08T01:46:27.799Z,5.00
2018-05-08T01:48:54.598Z,5.10
2018-05-08T01:51:20.490Z,4.73
2018-05-08T01:53:46.369Z,5.10
2018-05-08T01:56:12.306Z,5.57
2018-05-08T01:58:38.196Z,4.93
2018-05-08T02:01:04.160Z,5.33
2018-05-08T02:03:30.085Z,4.80
2018-05-08T02:05:56.004Z,4.97
2018-05-08T02:08:21.883Z,5.43
2018-05-08T02:10:47.819Z,5.17
2018-05-08T02:13:13.691Z,5.40
2018-05-08T02:15:39.546Z,5.27
2018-05-08T02:18:05.472Z,5.10
2018-05-08T02:20:31.377Z,5.57
2018-05-08T02:22:57.270Z,5.20
2018-05-08T02:25:23.229Z,5.07
2018-05-08T02:27:49.115Z,5.27
2018-05-08T02:30:14.992Z,5.07
2018-05-08T02:32:40.907Z,5.50
2018-05-08T02:35:06.772Z,5.80
2018-05-08T02:37:32.768Z,5.77
2018-05-08T02:39:58.636Z,5.53
2018-05-08T02:42:24.521Z,4.97
2018-05-08T02:44:50.389Z,5.07
2018-05-08T02:47:16.328Z,5.60
2018-05-08T02:49:42.294Z,5.30
2018-05-08T02:52:08.188Z,5.33
2018-05-08T02:54:34.127Z,5.97
2018-05-08T02:57:00.008Z,5.93
2018-05-08T02:59:25.904Z,6.07
2018-05-08T03:01:51.811Z,6.27
2018-05-08T03:04:17.681Z,5.87
2018-05-08T03:06:43.565Z,5.93
2018-05-08T03:09:09.869Z,6.07
2018-05-08T03:11:37.256Z,6.33
2018-05-08T03:14:03.147Z,6.13
2018-05-08T03:16:48.799Z,5.53
2018-05-08T03:19:14.743Z,6.50
2018-05-08T03:21:40.623Z,6.10
2018-05-08T03:24:06.655Z,6.27
2018-05-08T03:26:32.625Z,6.37
2018-05-08T03:28:58.478Z,6.00
2018-05-08T03:31:24.408Z,5.43
2018-05-08T03:33:50.334Z,6.20
2018-05-08T03:36:16.278Z,6.33
2018-05-08T03:38:42.213Z,6.63
2018-05-08T03:41:08.099Z,6.20
2018-05-08T03:43:34.014Z,6.43
2018-05-08T03:45:59.965Z,6.47
2018-05-08T03:48:25.846Z,6.40
2018-05-08T03:50:51.735Z,6.37
2018-05-08T03:53:17.690Z,6.20
2018-05-08T03:55:43.593Z,5.77
2018-05-08T03:58:09.606Z,6.53
2018-05-08T04:00:47.869Z,6.73
2018-05-08T04:03:26.220Z,6.83
2018-05-08T04:06:04.400Z,6.70
2018-05-08T04:08:31.261Z,7.07
2018-05-08T04:10:57.140Z,6.20
2018-05-08T04:13:23.067Z,6.80
2018-05-08T04:15:48.953Z,7.27
2018-05-08T04:18:14.833Z,6.60
2018-05-08T04:20:40.872Z,7.70
2018-05-08T04:23:06.844Z,6.80
2018-05-08T04:25:32.823Z,7.27
2018-05-08T04:27:58.731Z,7.27
2018-05-08T04:30:24.624Z,7.13
2018-05-08T04:32:50.536Z,7.90
2018-05-08T04:35:16.515Z,7.97
2018-05-08T04:37:57.079Z,7.97
2018-05-08T04:40:23.097Z,7.80
2018-05-08T04:42:49.008Z,8.50
2018-05-08T04:45:14.940Z,8.30
2018-05-08T04:47:40.854Z,7.77
2018-05-08T04:50:06.765Z,8.67
2018-05-08T04:52:32.658Z,7.73
2018-05-08T04:54:58.596Z,8.30
2018-05-08T04:57:24.494Z,7.90
2018-05-08T04:59:50.384Z,8.07
2018-05-08T05:02:16.305Z,7.80
2018-05-08T05:04:42.190Z,8.17
2018-05-08T05:07:08.096Z,8.10
2018-05-08T05:09:34.029Z,7.60
2018-05-08T05:11:59.919Z,7.80
2018-05-08T05:14:25.834Z,8.87
2018-05-08T05:16:51.747Z,7.20
2018-05-08T05:19:17.636Z,8.70
2018-05-08T05:21:44.624Z,7.80
2018-05-08T05:24:10.573Z,8.43
2018-05-08T05:26:36.822Z,8.83
2018-05-08T05:29:02.712Z,7.47
2018-05-08T05:31:28.666Z,7.73
2018-05-08T05:33:54.545Z,7.83
2018-05-08T05:36:20.420Z,8.10
2018-05-08T05:38:46.394Z,8.07
2018-05-08T05:41:12.287Z,7.77
2018-05-08T05:43:38.261Z,7.83
2018-05-08T05:46:04.166Z,7.13
2018-05-08T05:48:31.244Z,7.10
2018-05-08T05:50:57.171Z,7.60
2018-05-08T05:53:23.578Z,7.10
2018-05-08T05:55:49.512Z,7.70
2018-05-08T05:58:15.501Z,8.13
2018-05-08T06:00:41.520Z,7.60
2018-05-08T06:03:07.405Z,7.23
2018-05-08T06:05:33.292Z,7.67
2018-05-08T06:07:59.203Z,7.90
2018-05-08T06:10:25.147Z,6.87
2018-05-08T06:12:51.068Z,7.57
2018-05-08T06:15:17.204Z,6.90
2018-05-08T06:17:43.083Z,6.70
2018-05-08T06:20:08.947Z,6.80
2018-05-08T06:22:34.867Z,6.73
2018-05-08T06:25:00.827Z,7.27
2018-05-08T06:27:26.765Z,6.80
2018-05-08T06:29:52.863Z,7.70
2018-05-08T06:32:18.752Z,6.87
2018-05-08T06:34:44.625Z,6.63
2018-05-08T06:37:11.595Z,6.87
2018-05-08T06:39:37.604Z,6.60
2018-05-08T06:42:03.456Z,6.60
2018-05-08T06:44:29.377Z,6.90
2018-05-08T06:46:55.278Z,6.13
2018-05-08T06:49:21.334Z,7.37
2018-05-08T06:51:47.247Z,6.70
2018-05-08T06:54:13.148Z,6.73
2018-05-08T06:56:39.015Z,7.07
2018-05-08T06:59:04.927Z,6.80
2018-05-08T07:01:30.796Z,7.17
2018-05-08T07:03:56.678Z,6.70
2018-05-08T07:06:22.707Z,7.37
2018-05-08T07:08:48.654Z,6.37
2018-05-08T07:11:14.592Z,6.40
2018-05-08T07:13:40.528Z,6.27
2018-05-08T07:16:06.519Z,5.73
2018-05-08T07:18:32.353Z,5.80
2018-05-08T07:20:58.284Z,5.83
2018-05-08T07:23:24.172Z,6.00
2018-05-08T07:25:50.034Z,5.67
2018-05-08T07:28:16.051Z,5.93
2018-05-08T07:30:42.008Z,6.03
2018-05-08T07:33:08.836Z,5.70
2018-05-08T07:35:34.735Z,5.80
2018-05-08T07:38:00.707Z,5.77
2018-05-08T07:40:26.629Z,5.40
2018-05-08T07:42:53.594Z,5.80
2018-05-08T07:45:19.747Z,4.77
2018-05-08T07:47:45.587Z,5.07
2018-05-08T07:50:11.580Z,4.37
2018-05-08T07:52:37.451Z,4.57
2018-05-08T07:55:03.408Z,5.03
2018-05-08T07:57:30.092Z,5.10
2018-05-08T07:59:56.068Z,4.53
2018-05-08T08:02:23.749Z,4.33
2018-05-08T08:04:49.750Z,4.20
2018-05-08T08:07:15.634Z,4.30
2018-05-08T08:09:41.576Z,4.90
2018-05-08T08:12:07.903Z,5.00
2018-05-08T08:14:33.781Z,4.60
2018-05-08T08:16:59.886Z,4.37
2018-05-08T08:19:25.854Z,4.00
2018-05-08T08:21:51.778Z,3.77
2018-05-08T08:24:17.682Z,3.77
2018-05-08T08:26:43.616Z,3.67
2018-05-08T08:29:09.550Z,3.50
2018-05-08T08:31:35.418Z,3.70
2018-05-08T08:34:01.371Z,3.53
2018-05-08T08:36:27.309Z,3.43
2018-05-08T08:38:53.176Z,2.90
2018-05-08T08:41:19.107Z,2.73
2018-05-08T08:43:45.268Z,2.90
2018-05-08T08:46:11.288Z,2.70
2018-05-08T08:48:37.220Z,2.53
2018-05-08T08:51:04.187Z,3.17
2018-05-08T08:53:30.382Z,3.20
2018-05-08T08:55:56.396Z,3.03
2018-05-08T08:58:22.228Z,2.90
2018-05-08T09:00:48.091Z,2.50
2018-05-08T09:03:14.103Z,2.70
2018-05-08T09:05:40.908Z,2.70
2018-05-08T09:08:06.852Z,2.50
2018-05-08T09:10:32.780Z,2.63
2018-05-08T09:12:58.713Z,2.77
2018-05-08T09:15:24.651Z,2.57
2018-05-08T09:17:50.568Z,2.30
2018-05-08T09:20:16.443Z,3.20
2018-05-08T09:22:47.571Z,2.97
2018-05-08T09:25:13.615Z,2.50
2018-05-08T09:27:39.627Z,2.30
2018-05-08T09:30:05.505Z,2.70
2018-05-08T09:32:31.407Z,2.43
2018-05-08T09:34:57.277Z,2.40
2018-05-08T09:37:23.153Z,2.23
2018-05-08T09:39:49.116Z,2.37
2018-05-08T09:42:15.118Z,2.70
2018-05-08T09:44:41.009Z,2.80
2018-05-08T09:47:06.944Z,2.40
2018-05-08T09:49:32.834Z,2.60
2018-05-08T09:51:58.715Z,2.23
2018-05-08T09:54:24.654Z,2.20
2018-05-08T09:56:50.676Z,2.70
2018-05-08T09:59:16.615Z,3.17
2018-05-08T10:01:42.620Z,2.20
2018-05-08T10:04:08.737Z,2.20
2018-05-08T10:06:34.750Z,2.27
2018-05-08T10:09:00.760Z,1.83
2018-05-08T10:11:26.665Z,2.47
2018-05-08T10:13:52.534Z,2.30
2018-05-08T10:16:18.482Z,2.17
2018-05-08T10:18:44.526Z,2.73
2018-05-08T10:21:10.415Z,2.00
2018-05-08T10:23:36.435Z,2.00
2018-05-08T10:26:02.313Z,2.00
2018-05-08T10:28:28.191Z,2.00
2018-05-08T10:30:54.247Z,1.63
2018-05-08T10:33:20.207Z,1.80
2018-05-08T10:35:46.109Z,2.03
2018-05-08T10:38:12.088Z,1.87
2018-05-08T10:40:38.013Z,2.00
2018-05-08T10:43:04.773Z,1.90
2018-05-08T10:45:30.706Z,2.30
2018-05-08T10:47:56.611Z,1.80
2018-05-08T10:50:22.480Z,2.50
2018-05-08T10:52:48.714Z,2.00
2018-05-08T10:55:14.679Z,1.90
2018-05-08T10:57:40.662Z,2.20
2018-05-08T11:00:06.643Z,2.17
2018-05-08T11:02:32.560Z,2.20
2018-05-08T11:04:58.494Z,1.97
2018-05-08T11:07:24.450Z,1.80
2018-05-08T11:09:50.350Z,1.87
2018-05-08T11:12:16.250Z,2.00
2018-05-08T11:14:42.265Z,1.90
2018-05-08T11:17:08.138Z,2.00
2018-05-08T11:19:34.119Z,2.37
2018-05-08T11:22:00.067Z,2.20
2018-05-08T11:24:26.004Z,1.90
2018-05-08T11:26:51.956Z,2.00
2018-05-08T11:29:17.824Z,2.00
2018-05-08T11:31:43.880Z,2.13
2018-05-08T11:34:09.960Z,2.13
2018-05-08T11:36:35.884Z,2.23
2018-05-08T11:39:01.783Z,1.90
2018-05-08T11:41:27.695Z,2.10
2018-05-08T11:43:53.639Z,1.87
2018-05-08T11:46:19.532Z,2.00
2018-05-08T11:48:45.442Z,2.03
2018-05-08T11:51:11.423Z,2.10
2018-05-08T11:53:37.318Z,2.10
2018-05-08T11:56:03.228Z,2.27
2018-05-08T11:58:29.147Z,1.80
2018-05-08T12:00:55.100Z,2.10
2018-05-08T12:03:21.005Z,2.10
2018-05-08T12:05:46.938Z,2.50
2018-05-08T12:08:13.062Z,2.27
2018-05-08T12:10:38.984Z,2.27
2018-05-08T12:13:04.929Z,2.63
2018-05-08T12:15:30.827Z,2.60
2018-05-08T12:17:56.700Z,2.73
2018-05-08T12:20:22.664Z,2.10
2018-05-08T12:22:48.601Z,2.47
2018-05-08T12:25:14.482Z,2.63
2018-05-08T12:27:40.409Z,2.00
2018-05-08T12:30:06.299Z,2.20
2018-05-08T12:32:32.250Z,2.10
2018-05-08T12:34:58.165Z,2.40
2018-05-08T12:37:24.071Z,2.30
2018-05-08T12:39:49.952Z,2.57
2018-05-08T12:42:15.910Z,2.33
2018-05-08T12:44:41.805Z,2.20
2018-05-08T12:47:07.695Z,2.47
2018-05-08T12:49:33.671Z,2.10
2018-05-08T12:52:00.591Z,1.90
2018-05-08T12:54:26.482Z,1.90
2018-05-08T12:56:52.412Z,2.00
2018-05-08T12:59:18.331Z,1.90
2018-05-08T13:01:44.292Z,2.03
2018-05-08T13:04:10.238Z,2.23
2018-05-08T13:06:36.123Z,1.83
2018-05-08T13:09:02.020Z,2.17
2018-05-08T13:11:27.935Z,2.20
2018-05-08T13:13:53.819Z,1.63
2018-05-08T13:16:19.716Z,1.97
2018-05-08T13:18:45.651Z,1.90
2018-05-08T13:21:11.562Z,1.90
2018-05-08T13:23:37.432Z,1.97
2018-05-08T13:26:03.480Z,2.13
2018-05-08T13:28:29.368Z,2.13
2018-05-08T13:30:55.270Z,1.80
2018-05-08T13:33:21.322Z,1.60
2018-05-08T13:35:47.215Z,2.03
2018-05-08T13:38:13.223Z,1.90
2018-05-08T13:40:39.135Z,2.20
2018-05-08T13:43:05.023Z,2.00
2018-05-08T13:45:30.973Z,1.93
2018-05-08T13:47:56.868Z,1.80
2018-05-08T13:50:22.737Z,1.80
2018-05-08T13:52:48.655Z,1.70
2018-05-08T13:55:14.718Z,1.90
2018-05-08T13:57:40.601Z,2.07
2018-05-08T14:00:06.594Z,1.70
2018-05-08T14:02:32.521Z,1.90
2018-05-08T14:04:58.400Z,1.83
2018-05-08T14:07:24.279Z,1.80
2018-05-08T14:09:50.200Z,1.87
2018-05-08T14:12:16.090Z,1.57
2018-05-08T14:14:41.977Z,2.10
2018-05-08T14:17:07.910Z,1.80
2018-05-08T14:19:33.779Z,1.80
2018-05-08T14:21:59.667Z,2.03
2018-05-08T14:24:25.623Z,2.20
2018-05-08T14:26:51.543Z,1.90
2018-05-08T14:29:17.482Z,1.67
2018-05-08T14:31:43.483Z,2.00
2018-05-08T14:34:09.429Z,2.27
2018-05-08T14:36:35.300Z,2.30
2018-05-08T14:39:01.294Z,1.97
2018-05-08T14:41:27.178Z,1.83
2018-05-08T14:43:53.100Z,2.13
2018-05-08T14:46:19.035Z,1.80
2018-05-08T14:48:44.911Z,1.97
2018-05-08T14:51:10.788Z,2.00
2018-05-08T14:53:36.725Z,2.00
2018-05-08T14:56:02.606Z,2.10
2018-05-08T14:58:28.491Z,2.00
2018-05-08T15:00:54.444Z,1.93
2018-05-08T15:03:20.383Z,2.10
2018-05-08T15:05:46.368Z,2.13
2018-05-08T15:08:12.303Z,2.00
2018-05-08T15:10:38.268Z,2.17
2018-05-08T15:13:04.289Z,1.90
2018-05-08T15:15:30.147Z,1.73
2018-05-08T15:17:56.035Z,2.33
2018-05-08T15:20:21.960Z,2.10
2018-05-08T15:22:47.944Z,2.00
2018-05-08T15:25:13.861Z,2.10
2018-05-08T15:27:39.724Z,2.10
2018-05-08T15:30:05.683Z,2.10
2018-05-08T15:32:31.580Z,2.00
2018-05-08T15:34:57.581Z,2.00
2018-05-08T15:37:23.557Z,1.70
2018-05-08T15:39:49.452Z,1.97
2018-05-08T15:42:15.332Z,2.00
2018-05-08T15:44:41.273Z,2.43
2018-05-08T15:47:07.139Z,2.40
2018-05-08T15:49:33.060Z,2.23
2018-05-08T15:51:58.991Z,2.73
2018-05-08T15:54:24.953Z,2.43
2018-05-08T15:56:50.848Z,2.07
2018-05-08T15:59:16.839Z,1.73
2018-05-08T16:01:42.766Z,1.70
2018-05-08T16:04:08.640Z,2.00
2018-05-08T16:06:34.565Z,2.10
2018-05-08T16:09:00.437Z,2.03
2018-05-08T16:11:26.381Z,1.80
2018-05-08T16:13:52.274Z,2.20
2018-05-08T16:16:18.195Z,2.30
2018-05-08T16:18:44.062Z,2.03
2018-05-08T16:21:10.029Z,1.80
2018-05-08T16:23:35.899Z,2.10
2018-05-08T16:26:01.789Z,3.00
2018-05-08T16:28:27.708Z,2.30
2018-05-08T16:30:53.590Z,2.40
2018-05-08T16:33:19.517Z,2.40
2018-05-08T16:35:45.487Z,2.37
2018-05-08T16:38:11.371Z,2.47
2018-05-08T16:40:37.465Z,2.27
2018-05-08T16:43:03.400Z,2.37
2018-05-08T16:45:29.281Z,2.33
2018-05-08T16:47:55.182Z,1.80
2018-05-08T16:50:21.112Z,2.33
2018-05-08T16:52:46.991Z,2.27
2018-05-08T16:55:12.896Z,2.13
2018-05-08T16:57:38.847Z,2.63
2018-05-08T17:00:04.757Z,2.63
2018-05-08T17:02:30.638Z,2.47
2018-05-08T17:04:56.573Z,2.40
2018-05-08T17:07:22.467Z,2.27
2018-05-08T17:09:48.406Z,2.40
2018-05-08T17:12:14.320Z,2.47
2018-05-08T17:14:40.208Z,2.20
2018-05-08T17:17:06.087Z,2.50
2018-05-08T17:19:32.057Z,2.53
2018-05-08T17:21:57.920Z,2.00
2018-05-08T17:24:23.878Z,2.67
2018-05-08T17:26:49.864Z,2.50
2018-05-08T17:29:15.760Z,2.70
2018-05-08T17:31:41.634Z,2.30
2018-05-08T17:34:07.604Z,2.20
2018-05-08T17:36:33.595Z,2.40
2018-05-08T17:38:59.478Z,2.33
2018-05-08T17:41:25.426Z,2.10
2018-05-08T17:43:51.322Z,2.30
2018-05-08T17:46:17.209Z,2.83
2018-05-08T17:48:43.203Z,2.43
2018-05-08T17:51:09.100Z,2.50
2018-05-08T17:53:34.973Z,2.50
2018-05-08T17:56:00.917Z,2.30
2018-05-08T17:58:26.872Z,2.33
2018-05-08T18:00:52.896Z,2.50
2018-05-08T18:03:18.909Z,2.50
2018-05-08T18:05:44.774Z,2.37
2018-05-08T18:08:10.644Z,2.40
2018-05-08T18:10:36.584Z,2.30
2018-05-08T18:13:02.567Z,3.80
2018-05-08T18:15:28.455Z,3.00
2018-05-08T18:17:54.414Z,2.50
2018-05-08T18:20:20.372Z,2.57
2018-05-08T18:22:46.252Z,2.60
2018-05-08T18:25:12.578Z,2.40
2018-05-08T18:27:38.445Z,2.30
2018-05-08T18:30:04.328Z,2.60
2018-05-08T18:32:30.299Z,2.77
2018-05-08T18:34:56.190Z,2.40
2018-05-08T18:37:22.200Z,2.90
2018-05-08T18:39:48.166Z,2.90
2018-05-08T18:42:14.060Z,2.60
2018-05-08T18:44:39.922Z,2.70
2018-05-08T18:47:05.868Z,2.87
2018-05-08T18:49:31.903Z,2.87
2018-05-08T18:51:57.964Z,2.50
2018-05-08T18:54:23.887Z,2.60
2018-05-08T18:56:49.851Z,3.00
2018-05-08T18:59:15.750Z,2.43
2018-05-08T19:01:41.753Z,2.70
2018-05-08T19:04:07.649Z,2.80
2018-05-08T19:06:33.693Z,2.93
2018-05-08T19:09:01.084Z,2.95
2018-05-08T19:11:32.955Z,2.90
2018-05-08T19:13:58.930Z,3.13
2018-05-08T19:16:24.870Z,2.57
2018-05-08T19:18:56.850Z,3.57
2018-05-08T19:21:24.176Z,2.70
2018-05-08T19:23:56.292Z,2.70
2018-05-08T19:26:22.279Z,2.83
2018-05-08T19:28:54.412Z,2.90
2018-05-08T19:31:20.333Z,2.90
2018-05-08T19:33:46.222Z,2.43
2018-05-08T19:36:18.360Z,2.70
2018-05-08T19:38:44.305Z,3.03
2018-05-08T19:41:10.200Z,3.33
2018-05-08T19:43:39.884Z,2.60
2018-05-08T19:46:07.157Z,3.00
2018-05-08T19:48:34.369Z,3.10
2018-05-08T19:51:00.671Z,3.03
2018-05-08T19:53:27.124Z,3.90
2018-05-08T19:55:53.580Z,3.07
2018-05-08T19:58:19.655Z,3.17
2018-05-08T20:00:45.731Z,3.40
2018-05-08T20:03:11.774Z,3.23
2018-05-08T20:05:37.999Z,2.70
2018-05-08T20:08:03.909Z,3.20
2018-05-08T20:10:29.818Z,2.80
2018-05-08T20:12:55.732Z,3.10
2018-05-08T20:15:21.721Z,3.10
2018-05-08T20:17:47.606Z,2.83
2018-05-08T20:20:13.919Z,3.30
2018-05-08T20:22:39.789Z,3.13
2018-05-08T20:25:05.652Z,3.10
2018-05-08T20:27:32.046Z,3.00
2018-05-08T20:29:57.956Z,3.30
2018-05-08T20:32:23.891Z,2.90
2018-05-08T20:34:50.896Z,2.70
2018-05-08T20:37:16.770Z,3.00
2018-05-08T20:39:42.730Z,3.00
2018-05-08T20:42:08.677Z,3.30
2018-05-08T20:44:34.548Z,3.73
2018-05-08T20:47:00.425Z,3.80
2018-05-08T20:49:26.367Z,3.43
2018-05-08T20:51:52.376Z,3.50
2018-05-08T20:54:18.293Z,3.40
2018-05-08T20:56:44.231Z,3.40
2018-05-08T20:59:10.137Z,3.20
2018-05-08T21:01:36.049Z,3.20
2018-05-08T21:04:02.604Z,3.50
2018-05-08T21:06:28.481Z,3.03
2018-05-08T21:08:54.361Z,3.53
2018-05-08T21:11:20.283Z,3.00
2018-05-08T21:13:46.147Z,3.30
2018-05-08T21:16:12.116Z,3.73
2018-05-08T21:18:38.034Z,3.30
2018-05-08T21:21:03.944Z,3.37
2018-05-08T21:23:29.839Z,3.83
2018-05-08T21:25:56.096Z,3.80
2018-05-08T21:28:28.903Z,3.37
2018-05-08T21:31:01.028Z,3.23
2018-05-08T21:33:26.924Z,3.23
2018-05-08T21:35:52.791Z,3.50
2018-05-08T21:38:18.717Z,3.17
2018-05-08T21:40:44.679Z,3.00
2018-05-08T21:43:10.549Z,3.60
2018-05-08T21:45:36.482Z,3.93
2018-05-08T21:48:02.393Z,3.27
2018-05-08T21:50:28.255Z,3.30
2018-05-08T21:52:54.264Z,3.27
2018-05-08T21:55:20.139Z,3.63
2018-05-08T21:57:46.003Z,3.60
2018-05-08T22:00:11.941Z,4.20
2018-05-08T22:02:37.899Z,3.33
2018-05-08T22:05:03.935Z,3.43
2018-05-08T22:07:29.873Z,3.90
2018-05-08T22:09:55.756Z,3.60
2018-05-08T22:12:21.624Z,3.90
2018-05-08T22:14:47.549Z,3.60
2018-05-08T22:17:13.549Z,3.60
2018-05-08T22:19:39.442Z,3.20
2018-05-08T22:22:05.372Z,3.47
2018-05-08T22:24:31.253Z,3.30
2018-05-08T22:26:57.124Z,3.60
2018-05-08T22:29:23.170Z,3.50
2018-05-08T22:31:49.056Z,3.60
2018-05-08T22:34:14.940Z,3.50
2018-05-08T22:36:40.892Z,3.50
2018-05-08T22:39:06.806Z,3.90
2018-05-08T22:41:32.866Z,3.87
2018-05-08T22:43:58.802Z,3.33
2018-05-08T22:46:24.698Z,3.63
2018-05-08T22:48:50.624Z,3.50
2018-05-08T22:51:16.737Z,3.33
2018-05-08T22:53:42.769Z,3.60
2018-05-08T22:56:08.709Z,3.60
2018-05-08T22:58:34.634Z,3.77
2018-05-08T23:01:00.509Z,3.60
2018-05-08T23:03:26.372Z,4.03
2018-05-08T23:05:54.425Z,3.80
2018-05-08T23:08:20.309Z,3.73
2018-05-08T23:10:46.192Z,3.40
2018-05-08T23:13:12.108Z,3.57
2018-05-08T23:15:37.992Z,3.40
2018-05-08T23:18:04.085Z,3.50
2018-05-08T23:20:29.951Z,3.90
2018-05-08T23:22:55.833Z,3.73
2018-05-08T23:25:21.699Z,3.83
2018-05-08T23:27:47.603Z,3.47
2018-05-08T23:30:13.636Z,3.60
2018-05-08T23:32:39.515Z,3.47
2018-05-08T23:35:05.441Z,4.10
2018-05-08T23:37:31.330Z,3.40
2018-05-08T23:39:57.217Z,3.70
2018-05-08T23:42:24.802Z,3.47
2018-05-08T23:44:50.696Z,4.07
2018-05-08T23:47:16.564Z,3.67
2018-05-08T23:49:42.526Z,3.60
2018-05-08T23:52:08.415Z,3.60
2018-05-08T23:54:34.411Z,4.00
2018-05-08T23:57:00.329Z,3.73
2018-05-08T23:59:26.205Z,3.77
